createdAt,value
2023-03-29T00:02:00.762Z,65.39
2023-03-29T00:04:29.989Z,65.01
2023-03-29T00:06:56.756Z,65.30
2023-03-29T00:09:26.562Z,66.71
2023-03-29T00:11:52.866Z,66.99
2023-03-29T00:14:19.159Z,66.25
2023-03-29T00:16:46.839Z,66.98
2023-03-29T00:19:13.376Z,66.52
2023-03-29T00:21:39.709Z,67.01
2023-03-29T00:24:06.228Z,66.79
2023-03-29T00:26:32.532Z,66.35
2023-03-29T00:28:58.856Z,66.88
2023-03-29T00:31:26.111Z,67.28
2023-03-29T00:33:52.647Z,66.26
2023-03-29T00:36:18.959Z,66.20
2023-03-29T00:38:45.349Z,66.66
2023-03-29T00:41:11.800Z,66.63
2023-03-29T00:44:03.989Z,66.59
2023-03-29T00:46:31.544Z,66.04
2023-03-29T00:49:03.829Z,66.59
2023-03-29T00:51:34.255Z,66.14
2023-03-29T00:54:03.529Z,66.88
2023-03-29T00:56:35.199Z,66.27
2023-03-29T00:59:05.994Z,66.93
2023-03-29T01:01:46.522Z,66.06
2023-03-29T01:04:20.717Z,66.25
2023-03-29T01:06:58.979Z,66.88
2023-03-29T01:09:29.730Z,66.24
2023-03-29T01:12:02.723Z,66.65
2023-03-29T01:14:35.160Z,66.54
2023-03-29T01:17:01.489Z,66.70
2023-03-29T01:19:34.287Z,66.68
2023-03-29T01:22:13.571Z,66.92
2023-03-29T01:24:50.384Z,66.68
2023-03-29T01:27:28.387Z,66.97
2023-03-29T01:30:02.001Z,67.17
2023-03-29T01:32:38.741Z,67.55
2023-03-29T01:35:13.470Z,67.17
2023-03-29T01:37:45.619Z,67.00
2023-03-29T01:40:12.051Z,67.36
2023-03-29T01:42:48.419Z,67.50
2023-03-29T01:45:46.956Z,67.62
2023-03-29T01:48:17.253Z,67.25
2023-03-29T01:50:50.670Z,67.06
2023-03-29T01:53:41.139Z,67.16
2023-03-29T01:56:13.293Z,68.28
2023-03-29T01:58:48.878Z,68.48
2023-03-29T02:01:22.846Z,68.13
2023-03-29T02:03:54.533Z,67.97
2023-03-29T02:06:24.861Z,67.51
2023-03-29T02:08:52.967Z,68.25
2023-03-29T02:11:19.886Z,68.53
2023-03-29T02:13:46.481Z,68.13
2023-03-29T02:16:14.030Z,67.90
2023-03-29T02:18:44.842Z,68.59
2023-03-29T02:21:16.340Z,68.61
2023-03-29T02:23:47.485Z,68.93
2023-03-29T02:26:15.758Z,69.09
2023-03-29T02:28:42.886Z,68.89
2023-03-29T02:31:18.902Z,69.16
2023-03-29T02:33:52.051Z,69.82
2023-03-29T02:36:30.772Z,69.54
2023-03-29T02:38:59.898Z,69.26
2023-03-29T02:41:27.296Z,69.07
2023-03-29T02:43:56.636Z,69.85
2023-03-29T02:46:23.781Z,69.82
2023-03-29T02:48:53.958Z,69.32
2023-03-29T02:51:31.796Z,69.68
2023-03-29T02:54:05.519Z,70.19
2023-03-29T02:56:44.774Z,70.57
2023-03-29T02:59:12.158Z,70.27
2023-03-29T03:01:42.682Z,70.87
2023-03-29T03:04:13.074Z,70.69
2023-03-29T03:06:39.510Z,70.83
2023-03-29T03:09:05.907Z,71.01
2023-03-29T03:11:33.334Z,70.70
2023-03-29T03:13:59.914Z,70.59
2023-03-29T03:16:27.075Z,70.43
2023-03-29T03:18:54.747Z,71.24
2023-03-29T03:21:22.137Z,70.43
2023-03-29T03:23:48.636Z,70.65
2023-03-29T03:26:16.664Z,70.72
2023-03-29T03:28:43.082Z,70.56
2023-03-29T03:31:09.486Z,70.43
2023-03-29T03:33:35.800Z,71.49
2023-03-29T03:36:06.183Z,71.65
2023-03-29T03:38:33.088Z,71.72
2023-03-29T03:41:00.953Z,71.35
2023-03-29T03:43:28.654Z,71.34
2023-03-29T03:45:55.755Z,72.11
2023-03-29T03:48:23.095Z,72.35
2023-03-29T03:50:51.160Z,71.77
2023-03-29T03:53:18.519Z,71.73
2023-03-29T03:55:49.145Z,71.74
2023-03-29T03:58:16.466Z,71.43
2023-03-29T04:00:42.983Z,72.37
2023-03-29T04:03:09.847Z,71.92
2023-03-29T04:05:40.148Z,72.00
2023-03-29T04:08:06.747Z,72.91
2023-03-29T04:10:34.260Z,72.60
2023-03-29T04:13:05.121Z,72.89
2023-03-29T04:15:33.035Z,73.31
2023-03-29T04:18:00.636Z,72.81
2023-03-29T04:20:28.121Z,73.54
2023-03-29T04:22:54.403Z,73.57
2023-03-29T04:25:22.261Z,73.70
2023-03-29T04:27:50.367Z,73.57
2023-03-29T04:30:16.981Z,73.59
2023-03-29T04:32:43.365Z,73.70
2023-03-29T04:35:10.125Z,73.79
2023-03-29T04:37:40.195Z,74.02
2023-03-29T04:40:14.082Z,73.66
2023-03-29T04:42:45.893Z,73.11
2023-03-29T04:45:14.041Z,73.20
2023-03-29T04:47:41.897Z,73.17
2023-03-29T04:50:08.619Z,73.09
2023-03-29T04:52:35.447Z,73.69
2023-03-29T04:55:02.751Z,73.88
2023-03-29T04:57:29.339Z,73.81
2023-03-29T04:59:56.362Z,74.11
2023-03-29T05:02:22.897Z,74.05
2023-03-29T05:04:49.332Z,73.81
2023-03-29T05:07:17.893Z,73.44
2023-03-29T05:09:44.363Z,74.04
2023-03-29T05:12:11.053Z,73.48
2023-03-29T05:14:37.406Z,73.70
2023-03-29T05:17:04.984Z,73.68
2023-03-29T05:19:31.919Z,73.53
2023-03-29T05:21:59.027Z,72.88
2023-03-29T05:24:25.396Z,72.53
2023-03-29T05:26:51.968Z,73.18
2023-03-29T05:29:18.849Z,73.12
2023-03-29T05:31:45.263Z,73.20
2023-03-29T05:34:11.656Z,72.96
2023-03-29T05:36:39.044Z,72.61
2023-03-29T05:39:06.369Z,72.38
2023-03-29T05:41:33.645Z,71.71
2023-03-29T05:43:59.948Z,70.95
2023-03-29T05:46:26.898Z,71.02
2023-03-29T05:48:53.136Z,70.61
2023-03-29T05:51:22.393Z,69.65
2023-03-29T05:53:48.672Z,69.30
2023-03-29T05:56:16.301Z,68.98
2023-03-29T05:58:42.942Z,69.28
2023-03-29T06:01:14.380Z,69.02
2023-03-29T06:03:41.128Z,67.64
2023-03-29T06:06:08.775Z,68.10
2023-03-29T06:08:36.837Z,67.88
2023-03-29T06:11:08.902Z,67.61
2023-03-29T06:13:37.076Z,67.67
2023-03-29T06:16:04.317Z,66.62
2023-03-29T06:18:30.648Z,66.82
2023-03-29T06:20:56.953Z,66.73
2023-03-29T06:23:23.538Z,66.88
2023-03-29T06:25:51.423Z,67.22
2023-03-29T06:28:19.100Z,66.92
2023-03-29T06:30:46.036Z,66.54
2023-03-29T06:33:14.147Z,66.95
2023-03-29T06:35:47.177Z,66.57
2023-03-29T06:38:14.956Z,66.34
2023-03-29T06:40:43.094Z,66.00
2023-03-29T06:43:09.874Z,66.10
2023-03-29T06:45:37.755Z,65.97
2023-03-29T06:48:05.852Z,65.83
2023-03-29T06:50:32.526Z,66.03
2023-03-29T06:52:58.964Z,66.41
2023-03-29T06:55:25.938Z,65.72
2023-03-29T06:57:53.373Z,65.77
2023-03-29T07:00:27.702Z,65.84
2023-03-29T07:02:56.214Z,66.43
2023-03-29T07:05:23.866Z,66.12
2023-03-29T07:07:55.009Z,66.68
2023-03-29T07:10:23.508Z,66.71
2023-03-29T07:12:49.847Z,66.23
2023-03-29T07:15:16.426Z,65.59
2023-03-29T07:17:43.000Z,65.22
2023-03-29T07:20:15.707Z,65.14
2023-03-29T07:22:43.923Z,65.02
2023-03-29T07:25:12.261Z,65.64
2023-03-29T07:27:40.739Z,64.67
2023-03-29T07:30:11.141Z,63.93
2023-03-29T07:32:39.496Z,62.88
2023-03-29T07:35:07.258Z,62.90
2023-03-29T07:37:37.332Z,62.05
2023-03-29T07:40:09.097Z,61.65
2023-03-29T07:42:38.891Z,60.45
2023-03-29T07:45:08.423Z,59.44
2023-03-29T07:47:35.159Z,59.94
2023-03-29T07:50:02.276Z,60.04
2023-03-29T07:52:29.990Z,58.54
2023-03-29T07:54:56.918Z,57.54
2023-03-29T07:57:24.841Z,56.82
2023-03-29T07:59:51.738Z,57.28
2023-03-29T08:02:18.006Z,54.92
2023-03-29T08:04:44.797Z,54.53
2023-03-29T08:07:11.187Z,56.00
2023-03-29T08:09:37.516Z,55.01
2023-03-29T08:12:04.465Z,55.29
2023-03-29T08:14:31.138Z,54.63
2023-03-29T08:16:57.625Z,54.90
2023-03-29T08:19:23.961Z,54.17
2023-03-29T08:21:50.438Z,54.40
2023-03-29T08:24:18.566Z,53.49
2023-03-29T08:26:47.030Z,53.95
2023-03-29T08:29:13.398Z,53.58
2023-03-29T08:31:39.882Z,52.84
2023-03-29T08:34:06.353Z,52.88
2023-03-29T08:36:33.019Z,53.51
2023-03-29T08:38:59.574Z,51.91
2023-03-29T08:41:57.668Z,53.28
2023-03-29T08:44:42.062Z,52.33
2023-03-29T08:47:35.627Z,51.68
2023-03-29T08:50:02.281Z,50.63
2023-03-29T08:52:41.155Z,50.47
2023-03-29T08:55:15.380Z,49.28
2023-03-29T08:57:47.839Z,49.17
2023-03-29T09:00:22.560Z,48.50
2023-03-29T09:02:51.865Z,49.38
2023-03-29T09:05:25.674Z,50.71
2023-03-29T09:07:53.245Z,51.19
2023-03-29T09:10:26.335Z,51.39
2023-03-29T09:13:03.289Z,52.09
2023-03-29T09:15:53.704Z,52.17
2023-03-29T09:18:33.726Z,52.94
2023-03-29T09:21:16.975Z,52.66
2023-03-29T09:24:03.336Z,51.77
2023-03-29T09:26:52.712Z,52.24
2023-03-29T09:29:47.290Z,52.26
2023-03-29T09:32:20.322Z,52.88
2023-03-29T09:34:59.577Z,53.39
2023-03-29T09:37:37.894Z,53.41
2023-03-29T09:40:11.927Z,54.44
2023-03-29T09:42:39.497Z,54.16
2023-03-29T09:45:08.568Z,53.57
2023-03-29T09:47:47.177Z,54.01
2023-03-29T09:50:30.041Z,54.24
2023-03-29T09:52:57.198Z,53.58
2023-03-29T09:55:28.300Z,52.77
2023-03-29T09:57:57.940Z,51.69
2023-03-29T10:00:24.964Z,52.13
2023-03-29T10:02:52.833Z,51.98
2023-03-29T10:05:19.895Z,51.93
2023-03-29T10:07:54.288Z,53.49
2023-03-29T10:10:24.095Z,52.25
2023-03-29T10:12:52.913Z,53.22
2023-03-29T10:15:29.388Z,52.93
2023-03-29T10:18:10.666Z,53.45
2023-03-29T10:20:39.874Z,53.06
2023-03-29T10:23:08.403Z,54.03
2023-03-29T10:25:42.632Z,53.60
2023-03-29T10:28:17.511Z,53.77
2023-03-29T10:30:47.419Z,53.51
2023-03-29T10:33:21.064Z,53.12
2023-03-29T10:35:48.602Z,52.95
2023-03-29T10:38:18.708Z,53.94
2023-03-29T10:40:48.005Z,52.74
2023-03-29T10:43:22.378Z,52.34
2023-03-29T10:45:51.728Z,51.12
2023-03-29T10:48:19.276Z,49.42
2023-03-29T10:50:51.352Z,48.28
2023-03-29T10:53:24.841Z,46.90
2023-03-29T10:56:15.372Z,45.86
2023-03-29T10:59:22.576Z,47.39
2023-03-29T11:01:58.068Z,48.29
2023-03-29T11:04:42.761Z,47.03
2023-03-29T11:07:27.794Z,47.02
2023-03-29T11:10:32.350Z,48.46
2023-03-29T11:13:03.534Z,47.02
2023-03-29T11:15:58.088Z,46.60
2023-03-29T11:18:46.103Z,46.40
2023-03-29T11:21:33.879Z,46.71
2023-03-29T11:24:31.203Z,47.46
2023-03-29T11:27:37.706Z,48.01
2023-03-29T11:30:29.004Z,48.10
2023-03-29T11:33:15.030Z,48.83
2023-03-29T11:35:52.489Z,49.53
2023-03-29T11:38:28.176Z,49.28
2023-03-29T11:41:03.209Z,49.09
2023-03-29T11:43:42.719Z,49.96
2023-03-29T11:46:09.300Z,51.05
2023-03-29T11:48:41.098Z,49.95
2023-03-29T11:51:16.066Z,50.57
2023-03-29T11:54:00.709Z,50.86
2023-03-29T11:56:39.359Z,50.91
2023-03-29T11:59:22.174Z,49.82
2023-03-29T12:01:56.445Z,49.84
2023-03-29T12:04:33.869Z,49.66
2023-03-29T12:07:11.994Z,47.89
2023-03-29T12:09:56.147Z,47.82
2023-03-29T12:12:48.703Z,45.21
2023-03-29T12:15:22.900Z,44.86
2023-03-29T12:17:59.073Z,42.14
2023-03-29T12:20:31.164Z,42.47
2023-03-29T12:22:58.896Z,43.94
2023-03-29T12:25:31.597Z,42.72
2023-03-29T12:28:05.579Z,42.51
2023-03-29T12:30:40.803Z,41.60
2023-03-29T12:33:29.108Z,41.46
2023-03-29T12:36:07.623Z,41.01
2023-03-29T12:38:34.694Z,41.72
2023-03-29T12:41:08.855Z,41.47
2023-03-29T12:43:43.378Z,43.42
2023-03-29T12:46:25.628Z,43.86
2023-03-29T12:48:57.976Z,43.31
2023-03-29T12:51:32.280Z,43.78
2023-03-29T12:54:21.896Z,45.30
2023-03-29T12:57:01.080Z,46.52
2023-03-29T12:59:43.580Z,46.57
2023-03-29T13:02:13.658Z,46.87
2023-03-29T13:04:43.429Z,47.99
2023-03-29T13:07:27.372Z,48.21
2023-03-29T13:10:10.463Z,46.89
2023-03-29T13:12:43.045Z,46.31
2023-03-29T13:15:16.619Z,45.38
2023-03-29T13:18:15.363Z,45.27
2023-03-29T13:20:58.711Z,45.80
2023-03-29T13:23:51.794Z,44.37
2023-03-29T13:26:29.230Z,43.01
2023-03-29T13:29:07.272Z,44.33
2023-03-29T13:31:59.993Z,44.23
2023-03-29T13:34:35.282Z,44.11
2023-03-29T13:37:04.661Z,43.82
2023-03-29T13:39:36.568Z,43.15
2023-03-29T13:42:19.628Z,42.85
2023-03-29T13:44:49.084Z,42.28
2023-03-29T13:47:36.446Z,41.30
2023-03-29T13:50:16.501Z,40.22
2023-03-29T13:52:58.726Z,39.62
2023-03-29T13:55:30.942Z,40.82
2023-03-29T13:58:07.166Z,40.17
2023-03-29T14:00:46.076Z,40.73
2023-03-29T14:03:15.451Z,40.13
2023-03-29T14:05:47.926Z,39.96
2023-03-29T14:08:26.092Z,40.01
2023-03-29T14:10:53.968Z,40.07
2023-03-29T14:13:25.103Z,41.43
2023-03-29T14:16:02.852Z,41.89
2023-03-29T14:18:36.696Z,41.96
2023-03-29T14:21:03.832Z,42.53
2023-03-29T14:23:37.845Z,43.15
2023-03-29T14:26:08.154Z,43.48
2023-03-29T14:28:34.612Z,43.68
2023-03-29T14:31:01.017Z,44.21
2023-03-29T14:33:34.572Z,44.21
2023-03-29T14:36:04.043Z,44.59
2023-03-29T14:38:32.185Z,44.39
2023-03-29T14:41:00.376Z,45.12
2023-03-29T14:43:31.203Z,45.58
2023-03-29T14:45:58.394Z,45.70
2023-03-29T14:48:25.737Z,45.67
2023-03-29T14:50:52.598Z,45.72
2023-03-29T14:53:22.049Z,45.28
2023-03-29T14:55:52.196Z,45.56
2023-03-29T14:58:31.790Z,45.82
2023-03-29T15:01:05.276Z,45.25
2023-03-29T15:03:43.402Z,45.61
2023-03-29T15:06:12.113Z,45.61
2023-03-29T15:08:44.098Z,45.12
2023-03-29T15:11:28.964Z,44.99
2023-03-29T15:14:02.512Z,45.63
2023-03-29T15:16:30.406Z,45.14
2023-03-29T15:18:58.000Z,45.58
2023-03-29T15:21:31.182Z,45.83
2023-03-29T15:24:00.456Z,46.74
2023-03-29T15:26:33.925Z,47.09
2023-03-29T15:29:10.710Z,47.25
2023-03-29T15:31:39.666Z,47.12
2023-03-29T15:34:25.568Z,47.56
2023-03-29T15:36:52.365Z,47.48
2023-03-29T15:39:19.932Z,47.73
2023-03-29T15:41:48.928Z,48.25
2023-03-29T15:44:19.795Z,48.88
2023-03-29T15:46:46.582Z,48.90
2023-03-29T15:49:14.141Z,49.05
2023-03-29T15:51:41.192Z,49.51
2023-03-29T15:54:07.875Z,49.08
2023-03-29T15:56:37.670Z,49.78
2023-03-29T15:59:04.422Z,50.19
2023-03-29T16:01:34.433Z,49.97
2023-03-29T16:04:14.115Z,50.59
2023-03-29T16:06:41.223Z,49.84
2023-03-29T16:09:08.715Z,50.82
2023-03-29T16:11:35.263Z,50.64
2023-03-29T16:14:01.704Z,50.94
2023-03-29T16:16:28.122Z,50.36
2023-03-29T16:18:54.459Z,49.48
2023-03-29T16:21:22.185Z,49.24
2023-03-29T16:23:48.545Z,49.24
2023-03-29T16:26:16.595Z,49.06
2023-03-29T16:28:43.318Z,49.57
2023-03-29T16:31:11.761Z,49.53
2023-03-29T16:33:38.576Z,49.23
2023-03-29T16:36:05.566Z,48.72
2023-03-29T16:38:33.701Z,49.56
2023-03-29T16:41:00.457Z,49.29
2023-03-29T16:43:27.013Z,49.64
2023-03-29T16:45:53.456Z,50.11
2023-03-29T16:48:19.910Z,49.40
2023-03-29T16:50:49.777Z,49.72
2023-03-29T16:53:18.418Z,49.54
2023-03-29T16:55:48.348Z,50.24
2023-03-29T16:58:15.286Z,50.65
2023-03-29T17:00:43.396Z,50.22
2023-03-29T17:03:10.860Z,51.08
2023-03-29T17:05:41.258Z,50.77
2023-03-29T17:08:09.917Z,50.96
2023-03-29T17:10:36.502Z,51.56
2023-03-29T17:13:02.855Z,52.56
2023-03-29T17:15:29.394Z,51.92
2023-03-29T17:17:55.690Z,51.81
2023-03-29T17:20:22.065Z,52.61
2023-03-29T17:22:51.984Z,53.28
2023-03-29T17:25:18.546Z,52.96
2023-03-29T17:27:46.028Z,54.09
2023-03-29T17:30:12.732Z,54.64
2023-03-29T17:32:41.263Z,54.81
2023-03-29T17:35:09.336Z,55.68
2023-03-29T17:37:36.315Z,56.06
2023-03-29T17:40:13.835Z,56.70
2023-03-29T17:42:41.446Z,56.40
2023-03-29T17:45:10.176Z,56.63
2023-03-29T17:47:37.752Z,57.41
2023-03-29T17:50:06.058Z,57.46
2023-03-29T17:52:32.415Z,57.25
2023-03-29T17:54:58.844Z,57.85
2023-03-29T17:57:25.257Z,59.17
2023-03-29T17:59:51.672Z,59.08
2023-03-29T18:02:21.259Z,59.52
2023-03-29T18:04:48.337Z,59.57
2023-03-29T18:07:14.916Z,59.40
2023-03-29T18:09:41.191Z,59.76
2023-03-29T18:12:08.191Z,59.92
2023-03-29T18:14:35.096Z,60.67
2023-03-29T18:17:02.450Z,60.87
2023-03-29T18:19:28.859Z,60.77
2023-03-29T18:21:56.141Z,60.97
2023-03-29T18:24:22.454Z,61.12
2023-03-29T18:26:48.797Z,61.36
2023-03-29T18:29:15.457Z,60.44
2023-03-29T18:31:42.687Z,60.96
2023-03-29T18:34:09.090Z,60.19
2023-03-29T18:36:35.440Z,60.35
2023-03-29T18:39:05.617Z,60.57
2023-03-29T18:41:34.476Z,60.29
2023-03-29T18:44:00.896Z,60.70
2023-03-29T18:46:30.391Z,59.99
2023-03-29T18:48:58.074Z,60.13
2023-03-29T18:51:26.008Z,60.79
2023-03-29T18:53:52.776Z,60.09
2023-03-29T18:56:19.043Z,59.68
2023-03-29T18:58:46.195Z,59.31
2023-03-29T19:01:14.040Z,58.78
2023-03-29T19:03:40.829Z,57.86
2023-03-29T19:06:07.875Z,58.31
2023-03-29T19:08:36.569Z,57.69
2023-03-29T19:11:05.796Z,57.56
2023-03-29T19:13:32.131Z,57.21
2023-03-29T19:15:58.770Z,56.48
2023-03-29T19:18:25.870Z,56.01
2023-03-29T19:20:54.028Z,55.17
2023-03-29T19:23:21.806Z,54.57
2023-03-29T19:25:58.649Z,55.19
2023-03-29T19:28:25.850Z,54.18
2023-03-29T19:30:52.782Z,53.07
2023-03-29T19:33:19.982Z,53.60
2023-03-29T19:35:46.629Z,52.46
2023-03-29T19:38:13.048Z,52.68
2023-03-29T19:40:39.404Z,51.77
2023-03-29T19:43:05.854Z,51.84
2023-03-29T19:45:32.136Z,50.85
2023-03-29T19:48:02.962Z,50.66
2023-03-29T19:50:31.492Z,50.26
2023-03-29T19:52:58.397Z,49.80
2023-03-29T19:55:25.369Z,50.76
2023-03-29T19:57:52.277Z,49.93
2023-03-29T20:00:19.023Z,49.89
2023-03-29T20:02:45.341Z,50.01
2023-03-29T20:05:12.461Z,49.16
2023-03-29T20:07:38.796Z,49.68
2023-03-29T20:10:05.737Z,48.69
2023-03-29T20:12:32.025Z,48.53
2023-03-29T20:14:58.324Z,48.11
2023-03-29T20:17:24.745Z,48.10
2023-03-29T20:19:51.119Z,48.94
2023-03-29T20:22:18.806Z,48.31
2023-03-29T20:24:45.525Z,48.28
2023-03-29T20:27:12.184Z,49.22
2023-03-29T20:29:38.540Z,49.25
2023-03-29T20:32:05.035Z,49.21
2023-03-29T20:34:31.440Z,49.25
2023-03-29T20:37:00.765Z,49.38
2023-03-29T20:39:29.499Z,49.28
2023-03-29T20:41:55.817Z,48.51
2023-03-29T20:44:26.115Z,47.68
2023-03-29T20:47:03.226Z,47.81
2023-03-29T20:49:37.586Z,47.03
2023-03-29T20:52:10.666Z,47.49
2023-03-29T20:54:37.289Z,46.73
2023-03-29T20:57:05.027Z,46.09
2023-03-29T20:59:31.476Z,46.11
2023-03-29T21:01:58.306Z,45.94
2023-03-29T21:04:24.824Z,45.58
2023-03-29T21:06:51.314Z,44.59
2023-03-29T21:09:22.304Z,45.82
2023-03-29T21:11:49.384Z,44.16
2023-03-29T21:14:19.587Z,44.71
2023-03-29T21:16:47.242Z,44.79
2023-03-29T21:19:14.828Z,44.07
2023-03-29T21:21:42.719Z,43.23
2023-03-29T21:24:10.773Z,44.83
2023-03-29T21:26:37.183Z,44.20
2023-03-29T21:29:03.607Z,44.88
2023-03-29T21:31:30.131Z,44.02
2023-03-29T21:33:56.632Z,43.92
2023-03-29T21:36:23.556Z,44.24
2023-03-29T21:38:50.709Z,44.28
2023-03-29T21:41:17.606Z,43.33
2023-03-29T21:43:44.500Z,44.17
2023-03-29T21:46:11.756Z,44.43
2023-03-29T21:48:38.379Z,44.05
2023-03-29T21:51:05.287Z,44.25
2023-03-29T21:53:31.838Z,44.89
2023-03-29T21:55:58.201Z,44.88
2023-03-29T21:58:24.566Z,44.98
2023-03-29T22:00:51.366Z,45.65
2023-03-29T22:03:17.894Z,44.99
2023-03-29T22:05:55.328Z,45.58
2023-03-29T22:08:26.065Z,46.30
2023-03-29T22:10:57.300Z,46.58
2023-03-29T22:13:25.363Z,47.29
2023-03-29T22:15:56.104Z,46.98
2023-03-29T22:18:22.500Z,46.69
2023-03-29T22:20:48.976Z,47.11
2023-03-29T22:23:15.527Z,47.92
2023-03-29T22:25:41.792Z,47.84
2023-03-29T22:28:08.136Z,47.80
2023-03-29T22:30:34.501Z,46.77
2023-03-29T22:33:00.929Z,46.86
2023-03-29T22:35:27.302Z,46.11
2023-03-29T22:37:53.611Z,45.92
2023-03-29T22:40:19.917Z,45.17
2023-03-29T22:42:46.251Z,44.97
2023-03-29T22:45:12.600Z,45.29
2023-03-29T22:47:38.956Z,43.87
2023-03-29T22:50:07.078Z,44.36
2023-03-29T22:52:33.389Z,44.29
2023-03-29T22:54:59.697Z,43.49
2023-03-29T22:57:26.076Z,44.21
2023-03-29T22:59:52.379Z,43.87
2023-03-29T23:02:18.787Z,44.01
2023-03-29T23:04:45.542Z,43.69
2023-03-29T23:07:12.159Z,43.15
2023-03-29T23:09:38.495Z,43.26
2023-03-29T23:12:05.512Z,43.27
2023-03-29T23:14:33.671Z,44.04
2023-03-29T23:17:00.210Z,43.72
2023-03-29T23:19:26.992Z,43.90
2023-03-29T23:21:53.328Z,44.10
2023-03-29T23:24:19.666Z,44.38
2023-03-29T23:26:48.896Z,44.33
2023-03-29T23:29:15.378Z,44.29
2023-03-29T23:31:41.903Z,44.25
2023-03-29T23:34:09.102Z,44.07
2023-03-29T23:36:35.503Z,44.07
2023-03-29T23:39:01.901Z,45.02
2023-03-29T23:41:30.395Z,44.88
2023-03-29T23:43:57.571Z,45.23
2023-03-29T23:46:24.510Z,45.24
2023-03-29T23:48:50.987Z,44.58
2023-03-29T23:51:18.673Z,44.76
2023-03-29T23:53:44.985Z,45.09
2023-03-29T23:56:11.761Z,45.13
2023-03-29T23:58:38.125Z,45.58
